| time (UTC) | temp C | wind direction | speed KPH | gust KPH | rain 1hr cm | rain 24hr cm | rain mn cm | humidity % | barometer mb |
| 20260506231546 | 16 | 98 | 3.2 | 17.7 | 0.00 | 0.00 | 0.00 | 83 | 1012.1 |
| 20260506230045 | 16 | 83 | 1.6 | 14.5 | 0.00 | 0.00 | 0.00 | 83 | 1011.9 |
| 20260506224545 | 15 | 46 | 3.2 | 14.5 | 0.00 | 0.00 | 0.00 | 84 | 1011.9 |
| 20260506223048 | 15 | 63 | 1.6 | 14.5 | 0.00 | 0.00 | 0.00 | 84 | 1012.0 |
| 20260506221549 | 15 | 99 | 1.6 | 17.7 | 0.00 | 0.00 | 0.00 | 84 | 1011.9 |
| 20260506220050 | 15 | 71 | 4.8 | 14.5 | 0.00 | 0.00 | 0.00 | 84 | 1012.0 |
| 20260506214600 | 15 | 92 | 3.2 | 17.7 | 0.00 | 0.00 | 0.00 | 84 | 1011.9 |
| 20260506213044 | 15 | 93 | 6.4 | 20.9 | 0.00 | 0.00 | 0.00 | 83 | 1012.0 |
| 20260506211542 | 15 | 93 | 1.6 | 16.1 | 0.00 | 0.00 | 0.00 | 84 | 1012.3 |
| 20260506210050 | 15 | 102 | 4.8 | 22.5 | 0.00 | 0.00 | 0.00 | 83 | 1012.2 |
| 20260506204551 | 15 | 79 | 4.8 | 19.3 | 0.00 | 0.00 | 0.00 | 83 | 1012.3 |
| 20260506203048 | 15 | 102 | 3.2 | 19.3 | 0.00 | 0.00 | 0.00 | 82 | 1012.4 |
| 20260506201548 | 15 | 126 | 8.0 | 24.1 | 0.00 | 0.00 | 0.00 | 82 | 1012.3 |
| 20260506200118 | 16 | 32 | 8.0 | 24.1 | 0.00 | 0.00 | 0.00 | 81 | 1012.2 |
| 20260506194544 | 16 | 86 | 3.2 | 19.3 | 0.00 | 0.00 | 0.00 | 81 | 1012.1 |
| 20260506193054 | 17 | 0 | 4.8 | 22.5 | 0.00 | 0.00 | 0.00 | 80 | 1012.1 |
| 20260506191604 | 17 | 88 | 4.8 | 20.9 | 0.00 | 0.00 | 0.00 | 80 | 1012.3 |
| 20260506190048 | 17 | 0 | 9.7 | 24.1 | 0.00 | 0.00 | 0.00 | 80 | 1012.3 |
| 20260506184549 | 18 | 54 | 4.8 | 22.5 | 0.00 | 0.00 | 0.00 | 79 | 1012.1 |
| 20260506183045 | 21 | 59 | 8.0 | 17.7 | 0.00 | 0.00 | 0.00 | 74 | 1012.0 |
| 20260506181556 | 22 | 0 | 1.6 | 20.9 | 0.00 | 0.00 | 0.00 | 74 | 1011.9 |
| 20260506180111 | 21 | 110 | 0.0 | 16.1 | 0.00 | 0.00 | 0.00 | 77 | 1011.7 |
| 20260506174546 | 20 | 0 | 0.0 | 9.7 | 0.00 | 0.00 | 0.00 | 78 | 1011.5 |
| 20260506173106 | 20 | 0 | 0.0 | 11.3 | 0.00 | 0.00 | 0.00 | 80 | 1011.2 |
| 20260506171547 | 18 | 139 | 0.0 | 14.5 | 0.00 | 0.00 | 0.00 | 82 | 1011.4 |
| 20260506170044 | 18 | 0 | 4.8 | 16.1 | 0.00 | 0.00 | 0.00 | 83 | 1011.2 |
| 20260506164542 | 18 | 136 | 3.2 | 14.5 | 0.00 | 0.00 | 0.00 | 87 | 1011.4 |
| 20260506163044 | 16 | 0 | 0.0 | 14.5 | 0.00 | 0.00 | 0.00 | 91 | 1011.9 |
| 20260506161554 | 15 | 90 | 0.0 | 17.7 | 0.00 | 0.00 | 0.00 | 92 | 1012.4 |
| 20260506160049 | 15 | 86 | 4.8 | 24.1 | 0.00 | 0.00 | 0.00 | 91 | 1012.8 |
| 20260506154549 | 15 | 99 | 6.4 | 25.7 | 0.00 | 0.00 | 0.00 | 91 | 1012.7 |
| 20260506153041 | 16 | 51 | 8.0 | 30.6 | 0.00 | 0.00 | 0.00 | 91 | 1012.7 |
| 20260506151548 | 16 | 96 | 11.3 | 27.4 | 0.00 | 0.00 | 0.00 | 90 | 1012.5 |
| 20260506150056 | 17 | 103 | 3.2 | 19.3 | 0.00 | 0.00 | 0.00 | 90 | 1011.7 |
| 20260506144601 | 17 | 126 | 8.0 | 20.9 | 0.00 | 0.00 | 0.00 | 89 | 1011.3 |
| 20260506143047 | 18 | 105 | 9.7 | 22.5 | 0.00 | 0.00 | 0.00 | 89 | 1010.9 |
| 20260506141545 | 20 | 78 | 3.2 | 14.5 | 0.00 | 0.00 | 0.00 | 89 | 1010.1 |
| 20260506140044 | 22 | 120 | 6.4 | 17.7 | 0.00 | 0.00 | 0.00 | 87 | 1010.0 |
| 20260506134549 | 23 | 0 | 0.0 | 0.0 | 0.00 | 0.00 | 0.00 | 92 | 1009.8 |
| 20260506133051 | 23 | 0 | 0.0 | 0.0 | 0.00 | 0.00 | 0.00 | 92 | 1009.6 |
| 20260506131549 | 23 | 0 | 0.0 | 0.0 | 0.00 | 0.00 | 0.00 | 92 | 1009.5 |
| 20260506130049 | 23 | 0 | 0.0 | 0.0 | 0.00 | 0.00 | 0.00 | 93 | 1009.1 |
| 20260506124544 | 22 | 0 | 0.0 | 0.0 | 0.00 | 0.00 | 0.00 | 93 | 1009.0 |
| 20260506123043 | 22 | 0 | 0.0 | 0.0 | 0.00 | 0.00 | 0.00 | 93 | 1008.9 |
| 20260506121548 | 22 | 0 | 0.0 | 0.0 | 0.00 | 0.00 | 0.00 | 92 | 1008.7 |
| 20260506120050 | 22 | 0 | 0.0 | 0.0 | 0.00 | 0.00 | 0.00 | 91 | 1008.7 |
| 20260506114547 | 22 | 0 | 0.0 | 9.7 | 0.00 | 0.00 | 0.00 | 91 | 1008.6 |
| 20260506113042 | 23 | 172 | 4.8 | 8.0 | 0.00 | 0.00 | 0.00 | 90 | 1008.7 |
| 20260506111543 | 23 | 0 | 1.6 | 8.0 | 0.00 | 0.00 | 0.00 | 90 | 1008.8 |
| 20260506110048 | 23 | 0 | 3.2 | 9.7 | 0.00 | 0.00 | 0.00 | 90 | 1008.7 |
| 20260506104546 | 23 | 0 | 3.2 | 8.0 | 0.00 | 0.00 | 0.00 | 90 | 1008.8 |
| 20260506103117 | 23 | 0 | 0.0 | 6.4 | 0.00 | 0.00 | 0.00 | 90 | 1008.7 |
| 20260506101545 | 23 | 0 | 0.0 | 11.3 | 0.00 | 0.00 | 0.00 | 89 | 1008.5 |
| 20260506100044 | 23 | 193 | 6.4 | 17.7 | 0.00 | 0.00 | 0.00 | 89 | 1008.2 |
| 20260506094542 | 23 | 195 | 6.4 | 12.9 | 0.00 | 0.00 | 0.00 | 89 | 1008.3 |
| 20260506093043 | 23 | 195 | 6.4 | 16.1 | 0.00 | 0.00 | 0.00 | 89 | 1007.9 |
| 20260506091543 | 23 | 0 | 6.4 | 12.9 | 0.00 | 0.00 | 0.00 | 89 | 1007.8 |
| 20260506090047 | 23 | 237 | 6.4 | 14.5 | 0.00 | 0.00 | 0.00 | 88 | 1007.7 |
| 20260506084550 | 23 | 210 | 8.0 | 19.3 | 0.00 | 0.00 | 0.00 | 88 | 1007.5 |
| 20260506083055 | 23 | 0 | 6.4 | 16.1 | 0.00 | 0.00 | 0.00 | 88 | 1007.7 |
| 20260506081540 | 23 | 208 | 8.0 | 16.1 | 0.00 | 0.00 | 0.00 | 88 | 1007.6 |
| 20260506073103 | 23 | 198 | 11.3 | 22.5 | 0.00 | 0.00 | 0.00 | 89 | 1007.8 |
| 20260506071548 | 23 | 221 | 11.3 | 27.4 | 0.00 | 0.00 | 0.00 | 89 | 1008.0 |
| 20260506061548 | 23 | 226 | 12.9 | 29.0 | 0.00 | 0.00 | 0.00 | 88 | 1007.8 |
| 20260506044551 | 23 | 198 | 9.7 | 16.1 | 0.00 | 0.00 | 0.00 | 88 | 1007.8 |
| 20260506043050 | 23 | 241 | 8.0 | 17.7 | 0.00 | 0.00 | 0.00 | 88 | 1007.8 |
| 20260506041554 | 23 | 174 | 3.2 | 11.3 | 0.00 | 0.00 | 0.00 | 88 | 1007.7 |
| 20260506040052 | 24 | 234 | 9.7 | 16.1 | 0.00 | 0.00 | 0.00 | 87 | 1007.5 |
| 20260506034549 | 24 | 166 | 6.4 | 14.5 | 0.00 | 0.00 | 0.00 | 86 | 1007.5 |
| 20260506033101 | 24 | 164 | 11.3 | 19.3 | 0.00 | 0.00 | 0.00 | 85 | 1007.0 |
| 20260506031547 | 25 | 186 | 8.0 | 19.3 | 0.00 | 0.00 | 0.00 | 84 | 1007.1 |
| 20260506030057 | 25 | 175 | 6.4 | 9.7 | 0.00 | 0.00 | 0.00 | 83 | 1006.7 |
| 20260506024547 | 25 | 174 | 6.4 | 14.5 | 0.00 | 0.00 | 0.00 | 83 | 1006.7 |
| 20260506023044 | 25 | 188 | 3.2 | 11.3 | 0.00 | 0.00 | 0.00 | 82 | 1006.5 |
| 20260506021557 | 25 | 179 | 4.8 | 9.7 | 0.00 | 0.00 | 0.00 | 81 | 1006.2 |
| 20260506020048 | 25 | 0 | 0.0 | 11.3 | 0.00 | 0.00 | 0.00 | 80 | 1006.0 |
| 20260506014547 | 26 | 206 | 3.2 | 11.3 | 0.00 | 0.00 | 0.00 | 79 | 1005.7 |
| 20260506013048 | 26 | 196 | 6.4 | 14.5 | 0.00 | 0.00 | 0.00 | 78 | 1005.6 |
| 20260506011607 | 26 | 220 | 6.4 | 16.1 | 0.00 | 0.00 | 0.00 | 76 | 1005.6 |
| 20260506010046 | 26 | 202 | 8.0 | 14.5 | 0.00 | 0.00 | 0.00 | 75 | 1005.5 |
| 20260506004546 | 27 | 236 | 6.4 | 17.7 | 0.00 | 0.00 | 0.00 | 74 | 1005.5 |
| 20260506003042 | 27 | 224 | 6.4 | 20.9 | 0.00 | 0.00 | 0.00 | 72 | 1005.6 |
| 20260506001547 | 27 | 216 | 6.4 | 22.5 | 0.00 | 0.00 | 0.00 | 72 | 1005.5 |
| 20260506000054 | 27 | 224 | 12.9 | 20.9 | 0.00 | 0.00 | 0.00 | 71 | 1005.6 |
| 20260505234544 | 27 | 220 | 9.7 | 19.3 | 0.00 | 0.00 | 0.00 | 71 | 1005.5 |
| 20260505233042 | 27 | 233 | 9.7 | 22.5 | 0.00 | 0.00 | 0.00 | 70 | 1005.3 |